Badajoz Airport

Airport
ICAO code: 
LEBZ
IATA Code: 
BJZ
Summary
ICAO Region: 
EUR
Territory: 
Location: 
, Extremadura
Serving: 
Badajoz
Elevation: 
609 ft
Coordinates: 
Aerial View: 
38° 53' 28.5" N, 6° 49' 16.799" W
Metar
Observation
LEBZ 281200Z 09012KT CAVOK 15/03 Q1029
Station
Badajoz / Talavera La Real
Date/Time
2022-01-28 12:00:00
Wind direction
90°
Wind speed
12 kts
Lowest cloud amount
clouds and visibility OK
Temperature
15°C
Dew point
3°C
Humidity
44%
QNH
1029 hPa
Weather condition
n/a

Runways

Designator Length Width Surface Rops
13/31 2850 60 ASP Yes/Yes
Airport map: 
Aerial View: 

SKYbrary Partners:

Safety knowledge contributed by: